sensor_id;sensor_type;location;lat;lon;timestamp;P1;durP1;ratioP1;P2;durP2;ratioP2
66179;SDS011;52986;44.028;20.466;2023-03-31T00:02:08;47.65;;;25.33;;
66179;SDS011;52986;44.028;20.466;2023-03-31T00:04:41;49.85;;;27.08;;
66179;SDS011;52986;44.028;20.466;2023-03-31T00:07:16;53.35;;;26.95;;
66179;SDS011;52986;44.028;20.466;2023-03-31T00:09:46;47.25;;;24.55;;
66179;SDS011;52986;44.028;20.466;2023-03-31T00:12:16;45.40;;;24.63;;
66179;SDS011;52986;44.028;20.466;2023-03-31T00:14:42;49.35;;;26.02;;
66179;SDS011;52986;44.028;20.466;2023-03-31T00:17:08;50.47;;;26.55;;
66179;SDS011;52986;44.028;20.466;2023-03-31T00:19:34;50.13;;;27.52;;
66179;SDS011;52986;44.028;20.466;2023-03-31T00:22:00;49.72;;;27.33;;
66179;SDS011;52986;44.028;20.466;2023-03-31T00:24:26;51.00;;;27.85;;
66179;SDS011;52986;44.028;20.466;2023-03-31T00:26:52;55.22;;;29.33;;
66179;SDS011;52986;44.028;20.466;2023-03-31T00:29:18;52.53;;;28.13;;
66179;SDS011;52986;44.028;20.466;2023-03-31T00:31:43;52.70;;;28.10;;
66179;SDS011;52986;44.028;20.466;2023-03-31T00:34:09;44.75;;;25.73;;
66179;SDS011;52986;44.028;20.466;2023-03-31T00:36:34;50.65;;;26.45;;
66179;SDS011;52986;44.028;20.466;2023-03-31T00:39:02;51.20;;;26.60;;
66179;SDS011;52986;44.028;20.466;2023-03-31T00:41:36;48.20;;;24.52;;
66179;SDS011;52986;44.028;20.466;2023-03-31T00:54:47;53.22;;;27.85;;
66179;SDS011;52986;44.028;20.466;2023-03-31T00:57:15;47.50;;;26.85;;
66179;SDS011;52986;44.028;20.466;2023-03-31T01:00:14;51.60;;;25.80;;
66179;SDS011;52986;44.028;20.466;2023-03-31T01:02:39;52.13;;;26.75;;
66179;SDS011;52986;44.028;20.466;2023-03-31T01:05:05;49.15;;;26.45;;
66179;SDS011;52986;44.028;20.466;2023-03-31T01:07:34;46.22;;;25.25;;
66179;SDS011;52986;44.028;20.466;2023-03-31T01:10:05;47.22;;;26.20;;
66179;SDS011;52986;44.028;20.466;2023-03-31T01:12:31;47.15;;;25.58;;
66179;SDS011;52986;44.028;20.466;2023-03-31T01:15:01;47.50;;;27.25;;
66179;SDS011;52986;44.028;20.466;2023-03-31T01:17:28;46.75;;;25.30;;
66179;SDS011;52986;44.028;20.466;2023-03-31T01:36:23;42.97;;;22.80;;
66179;SDS011;52986;44.028;20.466;2023-03-31T01:39:10;43.60;;;23.23;;
66179;SDS011;52986;44.028;20.466;2023-03-31T01:52:45;38.13;;;19.20;;
66179;SDS011;52986;44.028;20.466;2023-03-31T01:58:36;40.85;;;21.58;;
66179;SDS011;52986;44.028;20.466;2023-03-31T02:01:14;39.83;;;20.65;;
66179;SDS011;52986;44.028;20.466;2023-03-31T02:03:50;37.85;;;18.92;;
66179;SDS011;52986;44.028;20.466;2023-03-31T02:06:22;62.20;;;31.05;;
66179;SDS011;52986;44.028;20.466;2023-03-31T02:08:54;44.28;;;22.40;;
66179;SDS011;52986;44.028;20.466;2023-03-31T02:11:24;50.72;;;27.92;;
66179;SDS011;52986;44.028;20.466;2023-03-31T02:13:53;39.00;;;20.40;;
66179;SDS011;52986;44.028;20.466;2023-03-31T02:16:21;31.95;;;16.38;;
66179;SDS011;52986;44.028;20.466;2023-03-31T02:18:51;29.67;;;14.80;;
66179;SDS011;52986;44.028;20.466;2023-03-31T02:21:26;28.70;;;13.38;;
66179;SDS011;52986;44.028;20.466;2023-03-31T02:23:53;27.35;;;12.73;;
66179;SDS011;52986;44.028;20.466;2023-03-31T02:26:20;29.88;;;14.00;;
66179;SDS011;52986;44.028;20.466;2023-03-31T02:28:49;26.90;;;11.80;;
66179;SDS011;52986;44.028;20.466;2023-03-31T02:32:00;27.65;;;12.55;;
66179;SDS011;52986;44.028;20.466;2023-03-31T02:34:22;24.80;;;11.23;;
66179;SDS011;52986;44.028;20.466;2023-03-31T02:36:48;23.13;;;10.68;;
66179;SDS011;52986;44.028;20.466;2023-03-31T02:39:15;28.13;;;11.98;;
66179;SDS011;52986;44.028;20.466;2023-03-31T02:41:45;28.63;;;12.52;;
66179;SDS011;52986;44.028;20.466;2023-03-31T02:44:10;27.13;;;12.20;;
66179;SDS011;52986;44.028;20.466;2023-03-31T02:46:36;26.38;;;12.55;;
66179;SDS011;52986;44.028;20.466;2023-03-31T02:49:03;25.40;;;12.10;;
66179;SDS011;52986;44.028;20.466;2023-03-31T02:51:46;32.25;;;14.10;;
66179;SDS011;52986;44.028;20.466;2023-03-31T03:10:34;29.45;;;14.95;;
66179;SDS011;52986;44.028;20.466;2023-03-31T03:16:01;28.98;;;13.20;;
66179;SDS011;52986;44.028;20.466;2023-03-31T03:18:30;23.17;;;11.88;;
66179;SDS011;52986;44.028;20.466;2023-03-31T03:20:56;24.45;;;11.85;;
66179;SDS011;52986;44.028;20.466;2023-03-31T03:23:21;26.48;;;12.70;;
66179;SDS011;52986;44.028;20.466;2023-03-31T03:25:47;27.20;;;13.88;;
66179;SDS011;52986;44.028;20.466;2023-03-31T03:28:12;25.48;;;12.75;;
66179;SDS011;52986;44.028;20.466;2023-03-31T03:30:38;23.65;;;11.68;;
66179;SDS011;52986;44.028;20.466;2023-03-31T03:33:03;22.58;;;11.13;;
66179;SDS011;52986;44.028;20.466;2023-03-31T03:35:31;24.35;;;10.93;;
66179;SDS011;52986;44.028;20.466;2023-03-31T03:37:57;22.73;;;10.52;;
66179;SDS011;52986;44.028;20.466;2023-03-31T03:40:22;20.80;;;10.45;;
66179;SDS011;52986;44.028;20.466;2023-03-31T03:42:48;20.98;;;9.38;;
66179;SDS011;52986;44.028;20.466;2023-03-31T03:45:13;20.02;;;9.57;;
66179;SDS011;52986;44.028;20.466;2023-03-31T03:47:39;22.15;;;10.05;;
66179;SDS011;52986;44.028;20.466;2023-03-31T03:50:04;20.65;;;9.80;;
66179;SDS011;52986;44.028;20.466;2023-03-31T03:52:30;20.52;;;9.57;;
66179;SDS011;52986;44.028;20.466;2023-03-31T03:54:56;34.45;;;14.73;;
66179;SDS011;52986;44.028;20.466;2023-03-31T03:57:21;35.05;;;14.05;;
66179;SDS011;52986;44.028;20.466;2023-03-31T03:59:47;17.48;;;8.35;;
66179;SDS011;52986;44.028;20.466;2023-03-31T04:02:12;17.00;;;8.43;;
66179;SDS011;52986;44.028;20.466;2023-03-31T04:04:37;18.85;;;8.85;;
66179;SDS011;52986;44.028;20.466;2023-03-31T04:07:03;21.50;;;9.90;;
66179;SDS011;52986;44.028;20.466;2023-03-31T04:09:28;23.02;;;10.70;;
66179;SDS011;52986;44.028;20.466;2023-03-31T04:11:54;27.23;;;13.27;;
66179;SDS011;52986;44.028;20.466;2023-03-31T04:14:20;26.67;;;12.75;;
66179;SDS011;52986;44.028;20.466;2023-03-31T04:16:45;27.55;;;12.85;;
66179;SDS011;52986;44.028;20.466;2023-03-31T04:19:14;25.92;;;11.57;;
66179;SDS011;52986;44.028;20.466;2023-03-31T04:21:43;26.25;;;11.98;;
66179;SDS011;52986;44.028;20.466;2023-03-31T04:24:10;28.73;;;12.75;;
66179;SDS011;52986;44.028;20.466;2023-03-31T04:26:45;34.28;;;14.25;;
66179;SDS011;52986;44.028;20.466;2023-03-31T04:29:11;29.55;;;12.45;;
66179;SDS011;52986;44.028;20.466;2023-03-31T04:31:37;30.85;;;13.20;;
66179;SDS011;52986;44.028;20.466;2023-03-31T04:34:06;42.08;;;16.15;;
66179;SDS011;52986;44.028;20.466;2023-03-31T04:36:43;32.40;;;12.85;;
66179;SDS011;52986;44.028;20.466;2023-03-31T04:39:13;37.83;;;16.27;;
66179;SDS011;52986;44.028;20.466;2023-03-31T04:41:41;41.05;;;18.33;;
66179;SDS011;52986;44.028;20.466;2023-03-31T04:44:09;35.15;;;16.73;;
66179;SDS011;52986;44.028;20.466;2023-03-31T04:46:35;41.00;;;20.83;;
66179;SDS011;52986;44.028;20.466;2023-03-31T04:49:00;37.67;;;19.00;;
66179;SDS011;52986;44.028;20.466;2023-03-31T04:51:27;34.97;;;16.98;;
66179;SDS011;52986;44.028;20.466;2023-03-31T04:53:53;29.50;;;14.27;;
66179;SDS011;52986;44.028;20.466;2023-03-31T04:56:18;26.48;;;12.20;;
66179;SDS011;52986;44.028;20.466;2023-03-31T04:58:44;24.88;;;10.48;;
66179;SDS011;52986;44.028;20.466;2023-03-31T05:01:09;23.33;;;10.38;;
66179;SDS011;52986;44.028;20.466;2023-03-31T05:03:37;20.65;;;8.23;;
66179;SDS011;52986;44.028;20.466;2023-03-31T05:06:03;18.38;;;7.93;;
66179;SDS011;52986;44.028;20.466;2023-03-31T05:08:29;25.65;;;10.38;;
66179;SDS011;52986;44.028;20.466;2023-03-31T05:10:54;23.20;;;11.10;;
66179;SDS011;52986;44.028;20.466;2023-03-31T05:13:20;22.77;;;11.40;;
66179;SDS011;52986;44.028;20.466;2023-03-31T05:15:45;26.80;;;11.40;;
66179;SDS011;52986;44.028;20.466;2023-03-31T05:18:14;24.08;;;11.23;;
66179;SDS011;52986;44.028;20.466;2023-03-31T05:20:40;23.10;;;11.45;;
66179;SDS011;52986;44.028;20.466;2023-03-31T05:23:05;20.70;;;10.85;;
66179;SDS011;52986;44.028;20.466;2023-03-31T05:25:31;21.83;;;11.02;;
66179;SDS011;52986;44.028;20.466;2023-03-31T05:27:57;27.75;;;11.20;;
66179;SDS011;52986;44.028;20.466;2023-03-31T05:30:24;26.15;;;11.60;;
66179;SDS011;52986;44.028;20.466;2023-03-31T05:32:50;26.20;;;11.90;;
66179;SDS011;52986;44.028;20.466;2023-03-31T05:35:16;27.30;;;13.02;;
66179;SDS011;52986;44.028;20.466;2023-03-31T05:37:41;27.55;;;13.20;;
66179;SDS011;52986;44.028;20.466;2023-03-31T05:40:07;25.48;;;12.35;;
66179;SDS011;52986;44.028;20.466;2023-03-31T05:42:33;25.05;;;12.27;;
66179;SDS011;52986;44.028;20.466;2023-03-31T05:44:59;34.00;;;15.35;;
66179;SDS011;52986;44.028;20.466;2023-03-31T05:47:24;32.70;;;15.30;;
66179;SDS011;52986;44.028;20.466;2023-03-31T05:49:50;40.08;;;20.90;;
66179;SDS011;52986;44.028;20.466;2023-03-31T05:52:16;43.00;;;21.55;;
66179;SDS011;52986;44.028;20.466;2023-03-31T05:54:41;35.05;;;18.45;;
66179;SDS011;52986;44.028;20.466;2023-03-31T05:57:08;36.22;;;16.65;;
66179;SDS011;52986;44.028;20.466;2023-03-31T05:59:34;34.85;;;17.10;;
66179;SDS011;52986;44.028;20.466;2023-03-31T06:02:00;43.30;;;19.25;;
66179;SDS011;52986;44.028;20.466;2023-03-31T06:04:26;59.40;;;29.50;;
66179;SDS011;52986;44.028;20.466;2023-03-31T06:06:53;59.55;;;28.83;;
66179;SDS011;52986;44.028;20.466;2023-03-31T06:09:20;65.47;;;30.73;;
66179;SDS011;52986;44.028;20.466;2023-03-31T06:11:45;72.70;;;30.73;;
66179;SDS011;52986;44.028;20.466;2023-03-31T06:14:11;56.70;;;26.83;;
66179;SDS011;52986;44.028;20.466;2023-03-31T06:16:36;55.78;;;26.15;;
66179;SDS011;52986;44.028;20.466;2023-03-31T06:19:02;47.33;;;22.55;;
66179;SDS011;52986;44.028;20.466;2023-03-31T06:21:27;41.42;;;17.77;;
66179;SDS011;52986;44.028;20.466;2023-03-31T06:23:53;32.40;;;14.17;;
66179;SDS011;52986;44.028;20.466;2023-03-31T06:26:20;29.48;;;12.02;;
66179;SDS011;52986;44.028;20.466;2023-03-31T06:28:46;29.65;;;12.77;;
66179;SDS011;52986;44.028;20.466;2023-03-31T06:31:14;17.58;;;5.57;;
66179;SDS011;52986;44.028;20.466;2023-03-31T06:33:41;15.98;;;5.43;;
66179;SDS011;52986;44.028;20.466;2023-03-31T06:36:08;17.00;;;5.65;;
66179;SDS011;52986;44.028;20.466;2023-03-31T06:38:35;16.23;;;4.63;;
66179;SDS011;52986;44.028;20.466;2023-03-31T06:41:02;14.27;;;4.25;;
66179;SDS011;52986;44.028;20.466;2023-03-31T06:43:28;15.52;;;4.57;;
66179;SDS011;52986;44.028;20.466;2023-03-31T06:45:54;12.45;;;3.80;;
66179;SDS011;52986;44.028;20.466;2023-03-31T06:48:19;11.45;;;3.22;;
66179;SDS011;52986;44.028;20.466;2023-03-31T06:50:46;10.88;;;2.90;;
66179;SDS011;52986;44.028;20.466;2023-03-31T06:53:11;8.95;;;3.13;;
66179;SDS011;52986;44.028;20.466;2023-03-31T06:55:37;11.23;;;3.33;;
66179;SDS011;52986;44.028;20.466;2023-03-31T06:58:03;9.60;;;2.95;;
66179;SDS011;52986;44.028;20.466;2023-03-31T07:00:30;17.42;;;4.53;;
66179;SDS011;52986;44.028;20.466;2023-03-31T07:02:56;10.85;;;2.58;;
66179;SDS011;52986;44.028;20.466;2023-03-31T07:05:22;10.73;;;2.47;;
66179;SDS011;52986;44.028;20.466;2023-03-31T07:07:55;11.63;;;3.60;;
66179;SDS011;52986;44.028;20.466;2023-03-31T07:10:22;11.10;;;2.97;;
66179;SDS011;52986;44.028;20.466;2023-03-31T07:12:49;15.07;;;2.75;;
66179;SDS011;52986;44.028;20.466;2023-03-31T07:15:14;8.73;;;2.40;;
66179;SDS011;52986;44.028;20.466;2023-03-31T07:17:40;8.95;;;2.42;;
66179;SDS011;52986;44.028;20.466;2023-03-31T07:20:13;8.95;;;2.75;;
66179;SDS011;52986;44.028;20.466;2023-03-31T07:22:40;10.68;;;2.55;;
66179;SDS011;52986;44.028;20.466;2023-03-31T07:25:10;7.18;;;2.20;;
66179;SDS011;52986;44.028;20.466;2023-03-31T07:27:37;6.78;;;2.20;;
66179;SDS011;52986;44.028;20.466;2023-03-31T07:30:03;27.50;;;4.25;;
66179;SDS011;52986;44.028;20.466;2023-03-31T07:32:30;9.63;;;2.40;;
66179;SDS011;52986;44.028;20.466;2023-03-31T07:34:55;9.70;;;2.65;;
66179;SDS011;52986;44.028;20.466;2023-03-31T07:37:21;11.38;;;3.03;;
66179;SDS011;52986;44.028;20.466;2023-03-31T07:39:46;9.20;;;3.22;;
66179;SDS011;52986;44.028;20.466;2023-03-31T07:42:11;10.05;;;2.88;;
66179;SDS011;52986;44.028;20.466;2023-03-31T07:44:37;12.80;;;2.90;;
66179;SDS011;52986;44.028;20.466;2023-03-31T07:47:02;10.18;;;2.80;;
66179;SDS011;52986;44.028;20.466;2023-03-31T07:49:30;12.75;;;3.08;;
66179;SDS011;52986;44.028;20.466;2023-03-31T07:51:56;10.45;;;2.85;;
66179;SDS011;52986;44.028;20.466;2023-03-31T07:54:22;8.85;;;2.60;;
66179;SDS011;52986;44.028;20.466;2023-03-31T07:56:47;10.20;;;2.40;;
66179;SDS011;52986;44.028;20.466;2023-03-31T07:59:13;8.90;;;2.63;;
66179;SDS011;52986;44.028;20.466;2023-03-31T08:01:39;8.27;;;2.10;;
66179;SDS011;52986;44.028;20.466;2023-03-31T08:04:04;10.40;;;2.35;;
66179;SDS011;52986;44.028;20.466;2023-03-31T08:06:30;10.95;;;2.40;;
66179;SDS011;52986;44.028;20.466;2023-03-31T08:08:55;5.95;;;2.00;;
66179;SDS011;52986;44.028;20.466;2023-03-31T08:11:21;5.47;;;2.08;;
66179;SDS011;52986;44.028;20.466;2023-03-31T08:13:48;9.85;;;2.45;;
66179;SDS011;52986;44.028;20.466;2023-03-31T08:16:15;7.63;;;2.17;;
66179;SDS011;52986;44.028;20.466;2023-03-31T08:18:40;18.58;;;3.70;;
66179;SDS011;52986;44.028;20.466;2023-03-31T08:21:06;6.63;;;2.47;;
66179;SDS011;52986;44.028;20.466;2023-03-31T08:23:33;6.35;;;2.35;;
66179;SDS011;52986;44.028;20.466;2023-03-31T08:26:09;9.63;;;2.65;;
66179;SDS011;52986;44.028;20.466;2023-03-31T08:28:42;8.15;;;2.20;;
66179;SDS011;52986;44.028;20.466;2023-03-31T08:31:07;7.57;;;2.17;;
66179;SDS011;52986;44.028;20.466;2023-03-31T08:33:34;7.07;;;2.28;;
66179;SDS011;52986;44.028;20.466;2023-03-31T08:36:04;7.22;;;1.90;;
66179;SDS011;52986;44.028;20.466;2023-03-31T08:38:33;9.07;;;2.20;;
66179;SDS011;52986;44.028;20.466;2023-03-31T08:41:01;6.95;;;2.25;;
66179;SDS011;52986;44.028;20.466;2023-03-31T08:43:41;6.68;;;2.10;;
66179;SDS011;52986;44.028;20.466;2023-03-31T08:46:13;7.82;;;2.40;;
66179;SDS011;52986;44.028;20.466;2023-03-31T08:48:43;8.07;;;2.13;;
66179;SDS011;52986;44.028;20.466;2023-03-31T08:51:19;7.00;;;2.00;;
66179;SDS011;52986;44.028;20.466;2023-03-31T08:53:54;6.40;;;1.90;;
66179;SDS011;52986;44.028;20.466;2023-03-31T08:56:27;8.32;;;2.10;;
66179;SDS011;52986;44.028;20.466;2023-03-31T08:58:54;6.65;;;2.15;;
66179;SDS011;52986;44.028;20.466;2023-03-31T09:01:29;9.10;;;2.20;;
66179;SDS011;52986;44.028;20.466;2023-03-31T09:10:04;6.95;;;2.40;;
66179;SDS011;52986;44.028;20.466;2023-03-31T09:16:01;9.02;;;2.75;;
66179;SDS011;52986;44.028;20.466;2023-03-31T09:18:12;7.70;;;2.50;;
66179;SDS011;52986;44.028;20.466;2023-03-31T09:20:44;9.13;;;3.13;;
66179;SDS011;52986;44.028;20.466;2023-03-31T09:25:56;6.57;;;2.30;;
66179;SDS011;52986;44.028;20.466;2023-03-31T09:28:32;8.50;;;2.30;;
66179;SDS011;52986;44.028;20.466;2023-03-31T09:31:11;6.53;;;2.05;;
66179;SDS011;52986;44.028;20.466;2023-03-31T09:33:43;9.02;;;2.60;;
66179;SDS011;52986;44.028;20.466;2023-03-31T09:36:14;11.50;;;2.45;;
66179;SDS011;52986;44.028;20.466;2023-03-31T09:38:41;7.78;;;2.50;;
66179;SDS011;52986;44.028;20.466;2023-03-31T09:41:07;10.13;;;2.70;;
66179;SDS011;52986;44.028;20.466;2023-03-31T09:43:35;8.18;;;2.20;;
66179;SDS011;52986;44.028;20.466;2023-03-31T09:46:02;12.40;;;2.63;;
66179;SDS011;52986;44.028;20.466;2023-03-31T09:48:36;7.30;;;2.10;;
66179;SDS011;52986;44.028;20.466;2023-03-31T09:51:04;9.85;;;2.50;;
66179;SDS011;52986;44.028;20.466;2023-03-31T09:53:51;22.13;;;3.67;;
66179;SDS011;52986;44.028;20.466;2023-03-31T09:59:21;6.30;;;2.10;;
66179;SDS011;52986;44.028;20.466;2023-03-31T10:01:55;9.30;;;3.05;;
66179;SDS011;52986;44.028;20.466;2023-03-31T10:04:25;8.27;;;2.70;;
66179;SDS011;52986;44.028;20.466;2023-03-31T10:06:53;6.28;;;2.03;;
66179;SDS011;52986;44.028;20.466;2023-03-31T10:09:20;7.65;;;2.38;;
66179;SDS011;52986;44.028;20.466;2023-03-31T10:11:56;7.55;;;2.53;;
66179;SDS011;52986;44.028;20.466;2023-03-31T10:14:37;12.52;;;3.03;;
66179;SDS011;52986;44.028;20.466;2023-03-31T10:17:05;7.93;;;2.63;;
66179;SDS011;52986;44.028;20.466;2023-03-31T10:19:35;11.35;;;2.60;;
66179;SDS011;52986;44.028;20.466;2023-03-31T10:22:05;7.90;;;2.25;;
66179;SDS011;52986;44.028;20.466;2023-03-31T10:24:42;5.53;;;2.00;;
66179;SDS011;52986;44.028;20.466;2023-03-31T10:29:52;6.40;;;2.20;;
66179;SDS011;52986;44.028;20.466;2023-03-31T10:34:55;7.30;;;2.17;;
66179;SDS011;52986;44.028;20.466;2023-03-31T10:37:23;10.65;;;2.50;;
66179;SDS011;52986;44.028;20.466;2023-03-31T10:39:59;6.75;;;2.42;;
66179;SDS011;52986;44.028;20.466;2023-03-31T10:42:27;9.38;;;2.50;;
66179;SDS011;52986;44.028;20.466;2023-03-31T10:45:35;6.85;;;2.10;;
66179;SDS011;52986;44.028;20.466;2023-03-31T10:50:17;13.40;;;3.00;;
66179;SDS011;52986;44.028;20.466;2023-03-31T10:52:44;9.10;;;2.70;;
66179;SDS011;52986;44.028;20.466;2023-03-31T10:55:11;8.90;;;2.78;;
66179;SDS011;52986;44.028;20.466;2023-03-31T11:00:11;7.28;;;2.33;;
66179;SDS011;52986;44.028;20.466;2023-03-31T11:05:42;8.35;;;2.22;;
66179;SDS011;52986;44.028;20.466;2023-03-31T11:08:21;9.95;;;2.20;;
66179;SDS011;52986;44.028;20.466;2023-03-31T11:13:30;9.30;;;2.20;;
66179;SDS011;52986;44.028;20.466;2023-03-31T11:41:20;6.40;;;2.58;;
66179;SDS011;52986;44.028;20.466;2023-03-31T11:44:04;10.25;;;3.00;;
66179;SDS011;52986;44.028;20.466;2023-03-31T11:49:16;7.22;;;2.50;;
66179;SDS011;52986;44.028;20.466;2023-03-31T11:54:24;12.50;;;3.00;;
66179;SDS011;52986;44.028;20.466;2023-03-31T11:56:55;9.75;;;2.30;;
66179;SDS011;52986;44.028;20.466;2023-03-31T11:59:21;10.00;;;2.50;;
66179;SDS011;52986;44.028;20.466;2023-03-31T12:02:09;10.45;;;3.22;;
66179;SDS011;52986;44.028;20.466;2023-03-31T12:07:22;6.47;;;2.40;;
66179;SDS011;52986;44.028;20.466;2023-03-31T12:10:02;7.80;;;2.40;;
66179;SDS011;52986;44.028;20.466;2023-03-31T12:12:55;6.47;;;2.47;;
66179;SDS011;52986;44.028;20.466;2023-03-31T12:15:23;6.95;;;2.42;;
66179;SDS011;52986;44.028;20.466;2023-03-31T12:18:07;9.43;;;2.50;;
66179;SDS011;52986;44.028;20.466;2023-03-31T12:20:36;7.32;;;2.35;;
66179;SDS011;52986;44.028;20.466;2023-03-31T12:23:28;8.48;;;2.50;;
66179;SDS011;52986;44.028;20.466;2023-03-31T12:25:54;7.18;;;2.40;;
66179;SDS011;52986;44.028;20.466;2023-03-31T12:28:53;8.98;;;2.63;;
66179;SDS011;52986;44.028;20.466;2023-03-31T12:31:23;7.85;;;2.30;;
66179;SDS011;52986;44.028;20.466;2023-03-31T12:33:57;6.50;;;2.40;;
66179;SDS011;52986;44.028;20.466;2023-03-31T12:45:06;7.60;;;2.60;;
66179;SDS011;52986;44.028;20.466;2023-03-31T12:50:31;8.52;;;2.33;;
66179;SDS011;52986;44.028;20.466;2023-03-31T12:56:22;11.80;;;3.10;;
66179;SDS011;52986;44.028;20.466;2023-03-31T12:58:47;8.57;;;2.70;;
66179;SDS011;52986;44.028;20.466;2023-03-31T13:01:14;11.85;;;3.25;;
66179;SDS011;52986;44.028;20.466;2023-03-31T13:09:00;15.90;;;3.65;;
66179;SDS011;52986;44.028;20.466;2023-03-31T13:19:08;12.48;;;4.75;;
66179;SDS011;52986;44.028;20.466;2023-03-31T13:21:53;9.27;;;2.60;;
66179;SDS011;52986;44.028;20.466;2023-03-31T13:24:21;11.27;;;3.00;;
66179;SDS011;52986;44.028;20.466;2023-03-31T13:26:48;8.68;;;2.50;;
66179;SDS011;52986;44.028;20.466;2023-03-31T13:40:10;6.85;;;2.30;;
66179;SDS011;52986;44.028;20.466;2023-03-31T13:43:01;7.95;;;2.20;;
66179;SDS011;52986;44.028;20.466;2023-03-31T14:00:17;7.32;;;1.88;;
66179;SDS011;52986;44.028;20.466;2023-03-31T14:03:03;6.10;;;2.10;;
66179;SDS011;52986;44.028;20.466;2023-03-31T14:08:35;5.85;;;2.00;;
66179;SDS011;52986;44.028;20.466;2023-03-31T14:11:20;11.60;;;2.63;;
66179;SDS011;52986;44.028;20.466;2023-03-31T14:14:00;9.65;;;2.40;;
66179;SDS011;52986;44.028;20.466;2023-03-31T14:16:29;14.20;;;2.47;;
66179;SDS011;52986;44.028;20.466;2023-03-31T14:19:10;10.02;;;2.60;;
66179;SDS011;52986;44.028;20.466;2023-03-31T14:22:00;6.53;;;2.20;;
66179;SDS011;52986;44.028;20.466;2023-03-31T14:28:11;8.57;;;2.25;;
66179;SDS011;52986;44.028;20.466;2023-03-31T14:38:32;8.07;;;2.42;;
66179;SDS011;52986;44.028;20.466;2023-03-31T14:40:58;8.73;;;2.10;;
66179;SDS011;52986;44.028;20.466;2023-03-31T14:45:58;6.88;;;2.40;;
66179;SDS011;52986;44.028;20.466;2023-03-31T14:48:28;10.20;;;2.30;;
66179;SDS011;52986;44.028;20.466;2023-03-31T14:50:57;10.07;;;2.47;;
66179;SDS011;52986;44.028;20.466;2023-03-31T14:53:24;10.82;;;2.20;;
66179;SDS011;52986;44.028;20.466;2023-03-31T14:55:50;7.28;;;2.20;;
66179;SDS011;52986;44.028;20.466;2023-03-31T14:58:31;9.77;;;2.40;;
66179;SDS011;52986;44.028;20.466;2023-03-31T15:01:01;9.40;;;2.25;;
66179;SDS011;52986;44.028;20.466;2023-03-31T15:03:28;6.55;;;2.08;;
66179;SDS011;52986;44.028;20.466;2023-03-31T15:05:56;10.02;;;2.60;;
66179;SDS011;52986;44.028;20.466;2023-03-31T15:08:23;6.97;;;2.20;;
66179;SDS011;52986;44.028;20.466;2023-03-31T15:10:53;7.13;;;2.47;;
66179;SDS011;52986;44.028;20.466;2023-03-31T15:13:25;9.73;;;2.40;;
66179;SDS011;52986;44.028;20.466;2023-03-31T15:18:45;10.15;;;2.53;;
66179;SDS011;52986;44.028;20.466;2023-03-31T15:21:20;7.30;;;2.30;;
66179;SDS011;52986;44.028;20.466;2023-03-31T15:23:49;8.55;;;2.50;;
66179;SDS011;52986;44.028;20.466;2023-03-31T15:26:16;10.30;;;3.10;;
66179;SDS011;52986;44.028;20.466;2023-03-31T15:28:49;7.65;;;2.85;;
66179;SDS011;52986;44.028;20.466;2023-03-31T15:31:24;8.73;;;2.72;;
66179;SDS011;52986;44.028;20.466;2023-03-31T15:33:51;17.58;;;3.65;;
66179;SDS011;52986;44.028;20.466;2023-03-31T15:36:16;11.43;;;2.60;;
66179;SDS011;52986;44.028;20.466;2023-03-31T15:38:45;11.23;;;2.95;;
66179;SDS011;52986;44.028;20.466;2023-03-31T15:41:11;13.27;;;3.00;;
66179;SDS011;52986;44.028;20.466;2023-03-31T15:46:19;11.98;;;3.00;;
66179;SDS011;52986;44.028;20.466;2023-03-31T15:53:45;12.00;;;4.47;;
66179;SDS011;52986;44.028;20.466;2023-03-31T15:58:59;15.38;;;5.40;;
66179;SDS011;52986;44.028;20.466;2023-03-31T16:01:39;17.50;;;7.85;;
66179;SDS011;52986;44.028;20.466;2023-03-31T16:04:09;20.67;;;6.30;;
66179;SDS011;52986;44.028;20.466;2023-03-31T16:15:06;13.50;;;4.85;;
66179;SDS011;52986;44.028;20.466;2023-03-31T16:17:39;12.50;;;4.93;;
66179;SDS011;52986;44.028;20.466;2023-03-31T16:22:52;9.43;;;3.22;;
66179;SDS011;52986;44.028;20.466;2023-03-31T16:25:21;11.82;;;3.20;;
66179;SDS011;52986;44.028;20.466;2023-03-31T16:27:49;14.52;;;3.20;;
66179;SDS011;52986;44.028;20.466;2023-03-31T16:30:19;14.82;;;5.03;;
66179;SDS011;52986;44.028;20.466;2023-03-31T16:33:07;9.98;;;3.03;;
66179;SDS011;52986;44.028;20.466;2023-03-31T16:35:37;8.23;;;2.90;;
66179;SDS011;52986;44.028;20.466;2023-03-31T16:38:05;11.68;;;3.40;;
66179;SDS011;52986;44.028;20.466;2023-03-31T16:40:38;13.65;;;4.57;;
66179;SDS011;52986;44.028;20.466;2023-03-31T16:43:16;16.13;;;4.97;;
66179;SDS011;52986;44.028;20.466;2023-03-31T16:45:44;14.82;;;4.65;;
66179;SDS011;52986;44.028;20.466;2023-03-31T16:48:14;13.68;;;4.40;;
66179;SDS011;52986;44.028;20.466;2023-03-31T16:50:40;13.38;;;3.95;;
66179;SDS011;52986;44.028;20.466;2023-03-31T16:53:06;16.77;;;4.95;;
66179;SDS011;52986;44.028;20.466;2023-03-31T16:55:32;15.85;;;5.60;;
66179;SDS011;52986;44.028;20.466;2023-03-31T16:57:58;16.25;;;4.45;;
66179;SDS011;52986;44.028;20.466;2023-03-31T17:00:27;13.20;;;4.25;;
66179;SDS011;52986;44.028;20.466;2023-03-31T17:02:58;12.85;;;3.83;;
66179;SDS011;52986;44.028;20.466;2023-03-31T17:05:25;12.00;;;3.75;;
66179;SDS011;52986;44.028;20.466;2023-03-31T17:07:51;11.85;;;4.50;;
66179;SDS011;52986;44.028;20.466;2023-03-31T17:10:17;14.40;;;4.78;;
66179;SDS011;52986;44.028;20.466;2023-03-31T17:12:43;13.80;;;5.13;;
66179;SDS011;52986;44.028;20.466;2023-03-31T17:15:08;16.05;;;6.93;;
66179;SDS011;52986;44.028;20.466;2023-03-31T17:17:34;28.63;;;13.02;;
66179;SDS011;52986;44.028;20.466;2023-03-31T17:20:00;21.63;;;8.95;;
66179;SDS011;52986;44.028;20.466;2023-03-31T17:22:26;19.65;;;7.70;;
66179;SDS011;52986;44.028;20.466;2023-03-31T17:24:51;15.38;;;6.80;;
66179;SDS011;52986;44.028;20.466;2023-03-31T17:27:22;12.23;;;4.40;;
66179;SDS011;52986;44.028;20.466;2023-03-31T17:29:48;14.02;;;4.80;;
66179;SDS011;52986;44.028;20.466;2023-03-31T17:32:13;16.30;;;6.88;;
66179;SDS011;52986;44.028;20.466;2023-03-31T17:34:40;15.98;;;7.18;;
66179;SDS011;52986;44.028;20.466;2023-03-31T17:37:06;15.05;;;5.32;;
66179;SDS011;52986;44.028;20.466;2023-03-31T17:39:32;15.18;;;6.97;;
66179;SDS011;52986;44.028;20.466;2023-03-31T17:41:57;19.88;;;6.53;;
66179;SDS011;52986;44.028;20.466;2023-03-31T17:44:23;19.33;;;6.97;;
66179;SDS011;52986;44.028;20.466;2023-03-31T17:46:48;20.17;;;7.93;;
66179;SDS011;52986;44.028;20.466;2023-03-31T17:49:14;15.27;;;6.40;;
66179;SDS011;52986;44.028;20.466;2023-03-31T17:51:41;18.20;;;5.07;;
66179;SDS011;52986;44.028;20.466;2023-03-31T17:54:08;16.00;;;6.35;;
66179;SDS011;52986;44.028;20.466;2023-03-31T17:56:35;16.05;;;6.78;;
66179;SDS011;52986;44.028;20.466;2023-03-31T17:59:01;17.88;;;7.68;;
66179;SDS011;52986;44.028;20.466;2023-03-31T18:01:27;22.73;;;7.40;;
66179;SDS011;52986;44.028;20.466;2023-03-31T18:03:53;15.23;;;5.28;;
66179;SDS011;52986;44.028;20.466;2023-03-31T18:06:19;11.43;;;4.32;;
66179;SDS011;52986;44.028;20.466;2023-03-31T18:08:45;14.00;;;4.30;;
66179;SDS011;52986;44.028;20.466;2023-03-31T18:11:10;11.73;;;4.20;;
66179;SDS011;52986;44.028;20.466;2023-03-31T18:13:37;12.48;;;4.40;;